Time;durP1;ratioP1;P1;durP2;ratioP2;P2;SDS_P1;SDS_P2;PMS_P1;PMS_P2;Temp;Humidity;BMP_temperature;BMP_pressure;BME280_temperature;BME280_humidity;BME280_pressure;Samples;Min_cycle;Max_cycle;Signal;HPM_P1;HPM_P2
2023/09/14 00:00:30;;;;;;;17.63;15.88;;;8.80;99.90;;;;;;4951576;28;20395;-75
2023/09/14 00:02:58;;;;;;;16.38;14.95;;;8.90;99.90;;;;;;4964428;28;20066;-75
2023/09/14 00:05:25;;;;;;;16.67;14.93;;;8.80;99.90;;;;;;4970616;28;20046;-75
2023/09/14 00:07:51;;;;;;;16.45;14.73;;;8.70;99.90;;;;;;4957128;28;20129;-74
2023/09/14 00:10:18;;;;;;;17.48;15.98;;;8.60;99.90;;;;;;4969509;28;20692;-74
2023/09/14 00:12:45;;;;;;;18.50;16.25;;;8.60;99.90;;;;;;4959781;28;20127;-75
2023/09/14 00:15:12;;;;;;;17.92;16.17;;;8.60;99.90;;;;;;4974515;28;20050;-75
2023/09/14 00:17:39;;;;;;;17.17;15.57;;;8.50;99.90;;;;;;4980923;28;20057;-75
2023/09/14 00:20:09;;;;;;;18.60;15.93;;;8.50;99.90;;;;;;4962992;28;20054;-75
2023/09/14 00:22:36;;;;;;;18.40;16.58;;;8.50;99.90;;;;;;4958088;28;20058;-75
2023/09/14 00:25:04;;;;;;;19.20;16.35;;;8.60;99.90;;;;;;4967689;28;20054;-75
2023/09/14 00:27:30;;;;;;;20.80;16.80;;;8.70;99.90;;;;;;4970431;28;20458;-75
2023/09/14 00:29:58;;;;;;;18.20;16.50;;;8.70;99.90;;;;;;4963376;28;20883;-75
2023/09/14 00:32:25;;;;;;;18.42;16.63;;;8.70;99.90;;;;;;4987031;28;20137;-75
2023/09/14 00:34:53;;;;;;;17.85;16.55;;;8.50;99.90;;;;;;4961445;28;20048;-75
2023/09/14 00:37:20;;;;;;;20.65;17.60;;;8.40;99.90;;;;;;4968050;28;20046;-75
2023/09/14 00:39:47;;;;;;;17.38;15.52;;;8.60;99.90;;;;;;4975705;28;20069;-75
2023/09/14 00:42:14;;;;;;;16.42;14.98;;;8.60;99.90;;;;;;4970911;28;20042;-74
2023/09/14 00:44:41;;;;;;;17.15;15.40;;;8.60;99.90;;;;;;4956627;28;21098;-75
2023/09/14 00:47:08;;;;;;;21.48;17.85;;;8.60;99.90;;;;;;4960049;28;20038;-74
2023/09/14 00:49:34;;;;;;;19.00;15.77;;;8.50;99.90;;;;;;4974005;28;20042;-74
2023/09/14 00:52:02;;;;;;;19.85;17.30;;;8.40;99.90;;;;;;4960381;28;20130;-75
2023/09/14 00:54:29;;;;;;;19.23;16.77;;;8.40;99.90;;;;;;4970183;28;20540;-76
2023/09/14 00:56:56;;;;;;;19.05;17.05;;;8.30;99.90;;;;;;4958835;28;20094;-74
2023/09/14 00:59:23;;;;;;;22.77;17.58;;;8.20;99.90;;;;;;4954016;28;20050;-73
2023/09/14 01:01:50;;;;;;;19.75;17.67;;;8.20;99.90;;;;;;4959466;28;20133;-75
2023/09/14 01:04:17;;;;;;;20.85;18.83;;;8.10;99.90;;;;;;4957073;28;20076;-75
2023/09/14 01:06:44;;;;;;;21.52;19.35;;;8.10;99.90;;;;;;4971016;28;20106;-75
2023/09/14 01:09:11;;;;;;;23.38;19.08;;;8.20;99.90;;;;;;4981062;28;20041;-75
2023/09/14 01:11:38;;;;;;;22.98;18.48;;;8.10;99.90;;;;;;4953814;28;20058;-75
2023/09/14 01:14:20;;;;;;;27.42;19.75;;;8.00;99.90;;;;;;4960255;28;20043;-75
2023/09/14 01:17:18;;;;;;;21.98;19.58;;;8.10;99.90;;;;;;4974728;28;20045;-75
2023/09/14 01:19:58;;;;;;;20.90;19.02;;;7.90;99.90;;;;;;4958945;28;20049;-75
2023/09/14 01:22:33;;;;;;;22.15;19.35;;;7.90;99.90;;;;;;4989056;28;20038;-74
2023/09/14 01:25:34;;;;;;;23.85;21.48;;;7.80;99.90;;;;;;4956778;28;20050;-75
2023/09/14 01:28:09;;;;;;;22.38;19.95;;;7.80;99.90;;;;;;4985389;28;20597;-75
2023/09/14 01:30:39;;;;;;;33.35;20.83;;;7.80;99.90;;;;;;4941170;28;20042;-75
2023/09/14 01:33:08;;;;;;;23.85;21.33;;;7.80;99.90;;;;;;4981854;28;20073;-75
2023/09/14 01:35:59;;;;;;;27.15;22.27;;;7.80;99.90;;;;;;4944293;28;20051;-75
2023/09/14 01:38:28;;;;;;;22.98;20.52;;;7.60;99.90;;;;;;4948295;28;20062;-74
2023/09/14 01:40:55;;;;;;;23.58;20.60;;;7.70;99.90;;;;;;5018620;28;20068;-74
2023/09/14 01:43:23;;;;;;;25.00;21.90;;;7.70;99.90;;;;;;4959447;28;20131;-74
2023/09/14 01:45:51;;;;;;;24.85;21.65;;;7.70;99.90;;;;;;4967044;28;20050;-75
2023/09/14 01:48:19;;;;;;;23.58;21.25;;;7.60;99.90;;;;;;5024186;28;20513;-75
2023/09/14 01:50:46;;;;;;;31.75;21.17;;;7.50;99.90;;;;;;4956337;28;20041;-75
2023/09/14 01:53:13;;;;;;;26.52;21.42;;;7.50;99.90;;;;;;4980784;28;20188;-75
2023/09/14 01:55:40;;;;;;;24.23;21.30;;;7.50;99.90;;;;;;4958226;28;20046;-74
2023/09/14 01:58:07;;;;;;;26.08;21.75;;;7.50;99.90;;;;;;4965152;28;20611;-75
2023/09/14 02:00:34;;;;;;;25.02;22.52;;;7.50;99.90;;;;;;4964995;28;20201;-74
2023/09/14 02:03:01;;;;;;;27.15;22.88;;;7.50;99.90;;;;;;4980341;28;20060;-75
2023/09/14 02:05:28;;;;;;;33.65;25.67;;;7.60;99.90;;;;;;4956005;28;20062;-74
2023/09/14 02:07:55;;;;;;;34.30;25.50;;;7.50;99.90;;;;;;4974371;28;20053;-75
2023/09/14 02:10:22;;;;;;;29.83;23.75;;;7.50;99.90;;;;;;4981345;28;20511;-74
2023/09/14 02:12:50;;;;;;;29.77;26.02;;;7.50;99.90;;;;;;4969020;28;20046;-74
2023/09/14 02:15:17;;;;;;;38.03;26.67;;;7.60;99.90;;;;;;4957497;28;20673;-75
2023/09/14 02:17:44;;;;;;;34.85;24.65;;;7.50;99.90;;;;;;4965711;28;20054;-75
2023/09/14 02:20:11;;;;;;;26.10;23.33;;;7.40;99.90;;;;;;4945391;28;20104;-74
2023/09/14 02:22:38;;;;;;;35.45;25.38;;;7.30;99.90;;;;;;4973002;28;20583;-74
2023/09/14 02:25:06;;;;;;;25.48;22.95;;;7.30;99.90;;;;;;4956263;28;20149;-75
2023/09/14 02:27:35;;;;;;;26.35;23.48;;;7.30;99.90;;;;;;4970579;28;20152;-74
2023/09/14 02:30:03;;;;;;;27.55;23.73;;;7.20;99.90;;;;;;4971150;28;20066;-75
2023/09/14 02:32:30;;;;;;;27.42;23.10;;;7.10;99.90;;;;;;4951322;28;20050;-75
2023/09/14 02:34:57;;;;;;;28.45;23.85;;;7.00;99.90;;;;;;4962063;28;20045;-75
2023/09/14 02:37:23;;;;;;;28.50;24.38;;;7.00;99.90;;;;;;4962895;28;20058;-74
2023/09/14 02:39:50;;;;;;;34.35;25.60;;;7.20;99.90;;;;;;4962668;28;20948;-76
2023/09/14 02:42:17;;;;;;;31.40;25.20;;;7.30;99.90;;;;;;4959957;28;20069;-75
2023/09/14 02:44:44;;;;;;;32.25;25.88;;;7.20;99.90;;;;;;4956814;28;20108;-75
2023/09/14 02:47:10;;;;;;;32.55;25.15;;;7.30;99.90;;;;;;4970283;28;20069;-75
2023/09/14 02:49:37;;;;;;;36.15;27.08;;;7.40;99.90;;;;;;4977374;28;20040;-74
2023/09/14 02:52:04;;;;;;;37.00;25.30;;;7.30;99.90;;;;;;4958351;28;20142;-74
2023/09/14 02:54:31;;;;;;;31.70;25.17;;;7.30;99.90;;;;;;4973149;28;20054;-75
2023/09/14 02:56:58;;;;;;;30.83;23.90;;;7.20;99.90;;;;;;4948825;28;20050;-74
2023/09/14 02:59:25;;;;;;;24.48;21.90;;;7.20;99.90;;;;;;4975351;28;20691;-75
2023/09/14 03:01:52;;;;;;;25.17;22.58;;;7.10;99.90;;;;;;4966213;28;20052;-75
2023/09/14 03:04:18;;;;;;;25.95;21.73;;;7.10;99.90;;;;;;4968621;28;20051;-75
2023/09/14 03:06:45;;;;;;;32.03;22.63;;;7.00;99.90;;;;;;4968892;28;20154;-74
2023/09/14 03:09:12;;;;;;;26.88;22.65;;;7.00;99.90;;;;;;4974315;28;20039;-75
2023/09/14 03:11:40;;;;;;;30.92;22.80;;;6.90;99.90;;;;;;4959803;28;20481;-75
2023/09/14 03:14:07;;;;;;;24.98;22.42;;;7.00;99.90;;;;;;4963417;28;20043;-75
2023/09/14 03:16:34;;;;;;;25.50;22.70;;;7.10;99.90;;;;;;4947154;28;20069;-74
2023/09/14 03:19:01;;;;;;;30.23;23.25;;;7.10;99.90;;;;;;4972953;28;20042;-75
2023/09/14 03:21:28;;;;;;;26.23;22.83;;;7.00;99.90;;;;;;4982531;28;20058;-74
2023/09/14 03:23:56;;;;;;;33.80;24.00;;;6.80;99.90;;;;;;4978967;28;20683;-75
2023/09/14 03:26:25;;;;;;;27.92;24.15;;;6.80;99.90;;;;;;4964152;28;20055;-76
2023/09/14 03:28:52;;;;;;;30.30;24.65;;;6.80;99.90;;;;;;4951633;28;21049;-75
2023/09/14 03:31:19;;;;;;;29.20;23.63;;;6.90;99.90;;;;;;4982095;28;20049;-75
2023/09/14 03:33:47;;;;;;;34.83;24.58;;;7.00;99.90;;;;;;4974295;28;20681;-75
2023/09/14 03:36:16;;;;;;;32.85;23.95;;;6.90;99.90;;;;;;4960953;28;20054;-75
2023/09/14 03:38:43;;;;;;;28.45;23.67;;;7.00;99.90;;;;;;4965848;28;20148;-75
2023/09/14 03:41:12;;;;;;;26.10;23.33;;;6.80;99.90;;;;;;4947748;28;20051;-75
2023/09/14 03:43:42;;;;;;;27.25;22.25;;;6.60;99.90;;;;;;4974926;28;20571;-74
2023/09/14 03:46:13;;;;;;;25.15;22.58;;;6.60;99.90;;;;;;4956897;28;20077;-75
2023/09/14 03:48:41;;;;;;;28.60;21.83;;;6.50;99.90;;;;;;4984711;28;20046;-75
2023/09/14 03:51:08;;;;;;;24.05;21.63;;;6.50;99.90;;;;;;4985189;28;20541;-75
2023/09/14 03:53:35;;;;;;;25.08;22.38;;;6.50;99.90;;;;;;4958119;28;20051;-75
2023/09/14 03:56:03;;;;;;;29.40;22.83;;;6.60;99.90;;;;;;4979732;28;20049;-75
2023/09/14 03:58:31;;;;;;;34.17;23.60;;;6.60;99.90;;;;;;4984404;28;20132;-75
2023/09/14 04:00:59;;;;;;;33.83;23.73;;;6.50;99.90;;;;;;4960307;28;20059;-75
2023/09/14 04:03:26;;;;;;;28.27;23.75;;;6.50;99.90;;;;;;4980427;28;20475;-75
2023/09/14 04:05:53;;;;;;;30.75;23.70;;;6.60;99.90;;;;;;4975877;28;20054;-75
2023/09/14 04:08:22;;;;;;;33.38;22.88;;;6.60;99.90;;;;;;5042293;28;20412;-75
2023/09/14 04:10:51;;;;;;;30.85;22.20;;;6.70;99.90;;;;;;4958437;28;20046;-75
2023/09/14 04:13:35;;;;;;;28.05;22.88;;;6.60;99.90;;;;;;4949190;28;20084;-76
2023/09/14 04:16:06;;;;;;;30.98;22.83;;;6.50;99.90;;;;;;4979275;28;20724;-76
2023/09/14 04:18:37;;;;;;;26.45;21.90;;;6.30;99.90;;;;;;4961735;28;20042;-74
2023/09/14 04:21:05;;;;;;;25.88;22.30;;;6.30;99.90;;;;;;4957171;28;20042;-75
2023/09/14 04:23:33;;;;;;;23.45;21.02;;;6.30;99.90;;;;;;4942468;28;20054;-75
2023/09/14 04:26:01;;;;;;;24.90;21.13;;;6.20;99.90;;;;;;4957437;28;20053;-75
2023/09/14 04:28:29;;;;;;;22.73;20.60;;;6.20;99.90;;;;;;4959772;28;20482;-75
2023/09/14 04:30:58;;;;;;;25.83;21.67;;;6.20;99.90;;;;;;4981661;28;21721;-75
2023/09/14 04:33:25;;;;;;;22.63;20.55;;;6.30;99.90;;;;;;4960118;28;20085;-75
2023/09/14 04:35:57;;;;;;;24.23;20.98;;;6.30;99.90;;;;;;4974505;28;20046;-74
2023/09/14 04:38:24;;;;;;;25.95;22.20;;;6.30;99.90;;;;;;4957871;28;20362;-75
2023/09/14 04:40:52;;;;;;;26.30;21.65;;;6.20;99.90;;;;;;4960945;28;20706;-75
2023/09/14 04:43:22;;;;;;;32.13;22.75;;;6.30;99.90;;;;;;4975189;28;20041;-76
2023/09/14 04:45:49;;;;;;;25.77;21.80;;;6.30;99.90;;;;;;4952076;28;20042;-76
2023/09/14 04:48:16;;;;;;;34.78;21.73;;;6.50;99.90;;;;;;4954307;28;20597;-75
2023/09/14 04:50:43;;;;;;;32.17;22.50;;;6.50;99.90;;;;;;4965899;28;20043;-75
2023/09/14 04:53:10;;;;;;;30.33;21.88;;;6.50;99.90;;;;;;4975070;28;20044;-76
2023/09/14 04:55:37;;;;;;;23.95;21.25;;;6.40;99.90;;;;;;4968313;28;20046;-74
2023/09/14 04:58:06;;;;;;;29.25;21.10;;;6.20;99.90;;;;;;4968858;28;20568;-76
2023/09/14 05:00:33;;;;;;;25.15;21.60;;;6.10;99.90;;;;;;4963030;28;20048;-75
2023/09/14 05:03:05;;;;;;;24.15;21.70;;;6.00;99.90;;;;;;5022785;28;20666;-75
2023/09/14 05:05:32;;;;;;;24.05;21.50;;;6.10;99.90;;;;;;4967576;28;20503;-74
2023/09/14 05:08:00;;;;;;;26.27;22.63;;;6.10;99.90;;;;;;5037701;28;20051;-75
2023/09/14 05:10:27;;;;;;;27.55;23.63;;;6.00;99.90;;;;;;4975201;28;20515;-76
2023/09/14 05:12:54;;;;;;;24.80;21.55;;;6.10;99.90;;;;;;4961167;28;20743;-76
2023/09/14 05:15:22;;;;;;;22.92;20.67;;;5.90;99.90;;;;;;4956375;28;20054;-75
2023/09/14 05:17:50;;;;;;;23.45;20.08;;;6.00;99.90;;;;;;4960629;28;20074;-74
2023/09/14 05:20:18;;;;;;;23.90;21.63;;;6.00;99.90;;;;;;4958974;28;20042;-76
2023/09/14 05:22:44;;;;;;;23.25;20.95;;;6.00;99.90;;;;;;4971932;28;20278;-76
2023/09/14 05:25:11;;;;;;;25.85;21.38;;;6.00;99.90;;;;;;4969235;28;20054;-75
2023/09/14 05:27:39;;;;;;;24.15;21.52;;;6.00;99.90;;;;;;4966638;28;20064;-75
2023/09/14 05:30:09;;;;;;;26.77;21.67;;;6.00;99.90;;;;;;4972932;28;20047;-75
2023/09/14 05:32:37;;;;;;;23.75;20.88;;;6.00;99.90;;;;;;4982471;28;20050;-75
2023/09/14 05:35:06;;;;;;;25.77;21.95;;;6.00;99.90;;;;;;5026184;28;20054;-75
2023/09/14 05:37:33;;;;;;;26.30;21.90;;;6.00;99.90;;;;;;4980179;28;20039;-74
2023/09/14 05:40:01;;;;;;;23.75;21.27;;;6.00;99.90;;;;;;4953894;28;20724;-75
2023/09/14 05:42:29;;;;;;;26.08;21.90;;;6.10;99.90;;;;;;4958550;28;20084;-74
2023/09/14 05:44:56;;;;;;;25.38;22.90;;;6.20;99.90;;;;;;4950293;28;20073;-75
2023/09/14 05:47:24;;;;;;;24.80;22.10;;;6.40;99.90;;;;;;4943003;28;20283;-75
2023/09/14 05:49:50;;;;;;;25.85;23.15;;;6.50;99.90;;;;;;4969318;28;20064;-76
2023/09/14 05:52:17;;;;;;;30.70;22.65;;;6.40;99.90;;;;;;4959955;28;20545;-76
2023/09/14 05:54:44;;;;;;;27.90;23.52;;;6.30;99.90;;;;;;4953492;28;20104;-76
2023/09/14 05:57:12;;;;;;;25.73;21.45;;;6.30;99.90;;;;;;4956642;28;20705;-76
2023/09/14 05:59:40;;;;;;;27.45;22.92;;;6.40;99.90;;;;;;4958093;28;20050;-75
2023/09/14 06:02:08;;;;;;;30.13;23.75;;;6.50;99.90;;;;;;4946005;28;20150;-76
2023/09/14 06:04:35;;;;;;;25.40;22.90;;;6.60;99.90;;;;;;4979262;28;20672;-74
2023/09/14 06:07:02;;;;;;;26.65;23.73;;;6.60;99.90;;;;;;4950885;28;20715;-75
2023/09/14 06:09:29;;;;;;;27.30;24.52;;;6.70;99.90;;;;;;4979998;28;20540;-75
2023/09/14 06:11:56;;;;;;;26.23;23.63;;;6.80;99.90;;;;;;4963475;28;20045;-75
2023/09/14 06:14:23;;;;;;;25.40;22.83;;;6.80;99.90;;;;;;4964480;28;20554;-75
2023/09/14 06:16:50;;;;;;;25.02;22.60;;;6.90;99.90;;;;;;4976123;28;20042;-75
2023/09/14 06:19:17;;;;;;;29.08;22.58;;;7.10;99.90;;;;;;4980642;28;20140;-75
2023/09/14 06:21:44;;;;;;;27.92;23.13;;;7.20;99.90;;;;;;4967716;28;20643;-75
2023/09/14 06:24:11;;;;;;;28.08;24.25;;;7.20;99.90;;;;;;4965374;28;20050;-75
2023/09/14 06:26:38;;;;;;;26.55;23.83;;;7.20;99.90;;;;;;4965534;28;20115;-74
2023/09/14 06:29:04;;;;;;;27.23;24.42;;;7.40;99.90;;;;;;4972745;28;21526;-74
2023/09/14 06:31:31;;;;;;;30.25;23.90;;;7.50;99.90;;;;;;4970223;28;20054;-74
2023/09/14 06:33:58;;;;;;;28.75;24.30;;;7.60;99.90;;;;;;4970262;28;20050;-74
2023/09/14 06:36:25;;;;;;;28.48;24.55;;;7.70;99.90;;;;;;4971769;28;20585;-73
2023/09/14 06:38:52;;;;;;;28.88;24.60;;;7.70;99.90;;;;;;4953470;28;20553;-73
2023/09/14 06:41:18;;;;;;;27.17;24.25;;;7.70;99.90;;;;;;4957868;28;20046;-74
2023/09/14 06:43:45;;;;;;;30.65;23.80;;;7.90;99.90;;;;;;4956482;28;20062;-74
2023/09/14 06:46:13;;;;;;;25.92;22.88;;;8.30;99.90;;;;;;4962575;28;20036;-73
2023/09/14 06:48:41;;;;;;;34.28;23.58;;;8.50;99.90;;;;;;4968384;28;20050;-74
2023/09/14 06:51:08;;;;;;;30.20;24.15;;;8.80;99.90;;;;;;4969260;28;20072;-74
2023/09/14 06:53:35;;;;;;;28.55;22.88;;;8.80;99.90;;;;;;4974130;28;20074;-73
2023/09/14 06:56:09;;;;;;;32.42;24.75;;;8.90;99.90;;;;;;4959055;28;20408;-74
2023/09/14 06:58:36;;;;;;;26.50;23.67;;;9.00;99.90;;;;;;4965475;28;20062;-72
2023/09/14 07:01:04;;;;;;;29.17;23.73;;;9.20;99.90;;;;;;4973758;28;20065;-72
2023/09/14 07:03:33;;;;;;;25.77;23.17;;;9.40;99.90;;;;;;4961603;28;20665;-74
2023/09/14 07:06:01;;;;;;;26.13;23.20;;;9.60;99.90;;;;;;4982262;28;20050;-74
2023/09/14 07:08:28;;;;;;;26.83;23.33;;;9.70;99.90;;;;;;4949053;28;20069;-74
2023/09/14 07:10:55;;;;;;;29.98;24.35;;;9.90;99.90;;;;;;4975003;28;20081;-73
2023/09/14 07:13:23;;;;;;;26.52;23.85;;;10.00;99.90;;;;;;4962061;28;20054;-74
2023/09/14 07:15:50;;;;;;;26.33;23.20;;;10.20;99.90;;;;;;4953012;28;20046;-73
2023/09/14 07:18:28;;;;;;;25.15;22.60;;;10.50;99.90;;;;;;4989077;28;20130;-75
2023/09/14 07:20:56;;;;;;;94.63;27.10;;;10.90;99.90;;;;;;4967122;28;20505;-73
2023/09/14 07:23:24;;;;;;;24.23;21.65;;;11.30;99.90;;;;;;4960296;28;20055;-74
2023/09/14 07:25:51;;;;;;;21.60;19.33;;;11.70;99.90;;;;;;4972272;28;20038;-72
2023/09/14 07:28:18;;;;;;;23.10;20.83;;;12.00;99.90;;;;;;4989784;28;20046;-74
2023/09/14 07:30:47;;;;;;;21.60;19.70;;;12.50;99.90;;;;;;4978093;28;20102;-74
2023/09/14 07:33:15;;;;;;;18.30;16.50;;;12.90;99.90;;;;;;4959474;28;20046;-75
2023/09/14 07:35:43;;;;;;;27.20;15.98;;;13.20;99.90;;;;;;4955944;28;20050;-74
2023/09/14 07:38:12;;;;;;;18.17;12.57;;;13.60;99.90;;;;;;4956624;28;20061;-75
2023/09/14 07:40:40;;;;;;;18.42;16.75;;;13.90;99.90;;;;;;4956312;28;20051;-75
2023/09/14 07:43:07;;;;;;;20.48;18.45;;;14.30;99.90;;;;;;4979481;28;20084;-75
2023/09/14 07:45:34;;;;;;;22.50;20.45;;;14.80;99.90;;;;;;4970961;28;20051;-74
2023/09/14 07:48:05;;;;;;;24.52;22.05;;;15.00;99.90;;;;;;4965159;28;20056;-74
2023/09/14 07:50:39;;;;;;;23.98;21.70;;;15.20;99.90;;;;;;4973949;28;20674;-74
2023/09/14 07:53:07;;;;;;;24.45;22.38;;;15.30;99.90;;;;;;4978210;28;20746;-75
2023/09/14 07:55:34;;;;;;;24.30;22.35;;;15.60;99.90;;;;;;4974986;28;20050;-75
2023/09/14 07:58:01;;;;;;;23.73;22.00;;;15.80;99.90;;;;;;4961766;28;20042;-74
2023/09/14 08:00:28;;;;;;;24.67;22.40;;;16.10;99.90;;;;;;4992077;28;20049;-74
2023/09/14 08:02:55;;;;;;;25.67;23.33;;;16.10;99.90;;;;;;4985457;28;20177;-74
2023/09/14 08:05:22;;;;;;;24.58;22.25;;;16.40;99.90;;;;;;4986081;28;20667;-74
2023/09/14 08:07:49;;;;;;;25.27;22.92;;;16.70;99.90;;;;;;4993577;28;20050;-74
2023/09/14 08:10:16;;;;;;;27.38;25.17;;;17.00;99.90;;;;;;4970981;28;20624;-74
2023/09/14 08:12:43;;;;;;;27.80;25.60;;;17.00;99.90;;;;;;4988841;28;20050;-74
2023/09/14 08:15:11;;;;;;;26.85;24.45;;;17.00;99.90;;;;;;4968747;28;20111;-74
2023/09/14 08:17:38;;;;;;;27.35;25.00;;;16.90;99.90;;;;;;4982865;28;20686;-73
2023/09/14 08:20:05;;;;;;;27.02;24.77;;;17.20;99.90;;;;;;4992500;28;20108;-73
2023/09/14 08:22:32;;;;;;;26.38;24.02;;;17.30;99.90;;;;;;4970165;28;20047;-76
2023/09/14 08:25:00;;;;;;;28.05;25.83;;;17.30;99.90;;;;;;4958518;28;20069;-72
2023/09/14 08:27:28;;;;;;;29.05;26.75;;;17.30;99.90;;;;;;4964080;28;20515;-73
2023/09/14 08:29:55;;;;;;;30.48;27.67;;;17.40;99.90;;;;;;4966536;28;20059;-73
2023/09/14 08:32:23;;;;;;;30.00;27.60;;;17.60;99.90;;;;;;4973753;28;20154;-73
2023/09/14 08:34:50;;;;;;;29.83;27.30;;;17.80;99.90;;;;;;4971276;28;20046;-74
2023/09/14 08:37:17;;;;;;;28.85;26.67;;;17.80;99.90;;;;;;4951738;28;20569;-73
2023/09/14 08:39:45;;;;;;;29.27;26.95;;;18.10;99.90;;;;;;4958351;28;20153;-74
2023/09/14 08:42:13;;;;;;;27.70;25.58;;;18.40;99.90;;;;;;4972546;28;20070;-73
2023/09/14 08:44:41;;;;;;;30.05;27.35;;;18.50;99.90;;;;;;4947632;28;20054;-73
2023/09/14 08:47:10;;;;;;;31.15;28.45;;;18.30;99.90;;;;;;4957111;28;20042;-73
2023/09/14 08:49:38;;;;;;;28.98;26.38;;;18.10;99.90;;;;;;4977938;28;20043;-73
2023/09/14 08:52:06;;;;;;;31.10;28.60;;;18.00;99.90;;;;;;4992208;28;20054;-74
2023/09/14 08:54:33;;;;;;;30.42;27.90;;;18.10;99.90;;;;;;4946354;28;20755;-73
2023/09/14 08:57:06;;;;;;;29.55;27.45;;;17.90;99.90;;;;;;4959032;28;21313;-73
2023/09/14 08:59:35;;;;;;;30.05;27.98;;;17.90;99.90;;;;;;5035530;28;20077;-73
2023/09/14 09:02:02;;;;;;;30.52;28.27;;;18.10;99.90;;;;;;4949448;28;20038;-72
2023/09/14 09:04:29;;;;;;;31.98;29.42;;;18.20;99.90;;;;;;4961768;28;20050;-73
2023/09/14 09:06:57;;;;;;;29.83;27.65;;;18.30;99.90;;;;;;4966619;28;20115;-72
2023/09/14 09:09:26;;;;;;;32.25;29.50;;;18.10;99.90;;;;;;4963172;28;20050;-73
2023/09/14 09:11:53;;;;;;;33.33;30.38;;;17.90;99.90;;;;;;4992303;28;20069;-74
2023/09/14 09:14:23;;;;;;;32.95;30.55;;;17.70;99.90;;;;;;4968400;28;20052;-73
2023/09/14 09:16:50;;;;;;;31.70;29.17;;;17.20;99.90;;;;;;4979118;28;20142;-73
2023/09/14 09:19:17;;;;;;;30.50;28.38;;;16.80;99.90;;;;;;4960131;28;20074;-73
2023/09/14 09:22:10;;;;;;;31.77;29.27;;;17.30;99.90;;;;;;4976070;28;20097;-72
2023/09/14 09:24:38;;;;;;;31.80;29.30;;;17.70;99.90;;;;;;4938672;28;20128;-73
2023/09/14 09:27:25;;;;;;;32.30;29.73;;;17.60;99.90;;;;;;4952073;28;20050;-73
2023/09/14 09:29:56;;;;;;;32.50;30.10;;;17.70;99.90;;;;;;4975012;28;20054;-73
2023/09/14 09:32:23;;;;;;;31.27;28.77;;;17.70;99.90;;;;;;4976132;28;20049;-73
2023/09/14 09:34:50;;;;;;;33.00;30.35;;;17.90;99.90;;;;;;5040017;28;20629;-73
2023/09/14 09:37:26;;;;;;;29.38;27.05;;;18.10;99.90;;;;;;4962598;28;20591;-73
2023/09/14 09:40:00;;;;;;;30.08;27.17;;;18.30;99.90;;;;;;4971822;28;20141;-73
2023/09/14 09:42:29;;;;;;;30.30;28.08;;;18.40;99.90;;;;;;4972316;28;20506;-72
2023/09/14 09:44:58;;;;;;;31.60;28.58;;;18.30;99.90;;;;;;4970142;28;20043;-73
2023/09/14 09:47:25;;;;;;;30.85;28.17;;;18.20;99.90;;;;;;4975013;28;20068;-73
2023/09/14 09:49:52;;;;;;;30.80;28.17;;;18.10;99.90;;;;;;4982942;28;20501;-73
2023/09/14 09:52:19;;;;;;;29.63;27.60;;;17.90;99.90;;;;;;4966598;28;20176;-73
2023/09/14 09:54:46;;;;;;;32.70;29.23;;;17.80;99.90;;;;;;4976446;28;20043;-73
2023/09/14 09:57:14;;;;;;;32.92;30.05;;;17.60;99.90;;;;;;4970860;28;20111;-73
2023/09/14 09:59:46;;;;;;;31.60;28.88;;;17.70;99.90;;;;;;4968780;28;20059;-72
2023/09/14 10:02:13;;;;;;;31.08;28.58;;;17.80;99.90;;;;;;4970758;28;20039;-74
2023/09/14 10:04:51;;;;;;;29.85;27.42;;;17.90;99.90;;;;;;5005796;28;20113;-73
2023/09/14 10:07:22;;;;;;;31.05;28.38;;;18.10;99.90;;;;;;4946050;28;20056;-73
2023/09/14 10:10:07;;;;;;;29.15;26.52;;;18.20;99.90;;;;;;4975330;28;20140;-73
2023/09/14 10:12:39;;;;;;;30.40;27.95;;;18.10;99.90;;;;;;4957408;28;20122;-73
2023/09/14 10:15:08;;;;;;;30.70;27.85;;;17.90;99.90;;;;;;4950755;28;20160;-71
2023/09/14 10:17:35;;;;;;;31.65;28.95;;;17.10;99.90;;;;;;4971056;28;20042;-73
2023/09/14 10:20:08;;;;;;;34.20;29.15;;;16.50;99.90;;;;;;4944714;28;20050;-72
2023/09/14 10:22:37;;;;;;;31.02;28.35;;;16.10;99.90;;;;;;4978216;28;20637;-72
2023/09/14 10:25:06;;;;;;;30.67;28.05;;;16.00;99.90;;;;;;4971671;28;20582;-71
2023/09/14 10:27:33;;;;;;;30.83;28.05;;;15.80;99.90;;;;;;4984888;28;20064;-72
2023/09/14 10:30:04;;;;;;;31.20;28.17;;;15.70;99.90;;;;;;4973541;28;20757;-71
2023/09/14 10:32:36;;;;;;;30.83;28.33;;;15.90;99.90;;;;;;4979713;28;20050;-73
2023/09/14 10:35:05;;;;;;;30.38;27.98;;;16.00;99.90;;;;;;4969411;28;20126;-72
2023/09/14 10:37:34;;;;;;;30.13;27.13;;;15.90;99.90;;;;;;4980415;28;20045;-74
2023/09/14 10:40:04;;;;;;;32.33;29.27;;;15.90;99.90;;;;;;4959085;28;20064;-72
2023/09/14 10:42:31;;;;;;;30.60;27.77;;;15.60;99.90;;;;;;4963258;28;20229;-74
2023/09/14 10:44:58;;;;;;;30.55;27.63;;;15.70;99.90;;;;;;4972445;28;20050;-73
2023/09/14 10:47:31;;;;;;;30.48;28.00;;;15.90;99.90;;;;;;4955455;28;20048;-73
2023/09/14 10:49:58;;;;;;;29.58;27.10;;;16.00;99.90;;;;;;4979044;28;20094;-73
2023/09/14 10:52:27;;;;;;;29.40;26.73;;;16.20;99.90;;;;;;4955192;28;20039;-73
2023/09/14 10:54:55;;;;;;;29.52;27.02;;;16.40;99.90;;;;;;4982508;28;20054;-71
2023/09/14 10:57:24;;;;;;;28.10;25.95;;;16.20;99.90;;;;;;4977538;28;20074;-72
2023/09/14 10:59:53;;;;;;;29.13;26.50;;;16.50;99.90;;;;;;4973246;28;20133;-72
2023/09/14 11:02:39;;;;;;;31.75;28.92;;;16.60;99.90;;;;;;4941673;28;20088;-72
2023/09/14 11:05:19;;;;;;;29.55;27.02;;;16.70;99.90;;;;;;4961373;28;20504;-72
2023/09/14 11:08:03;;;;;;;30.13;27.55;;;16.40;99.90;;;;;;4983893;28;20035;-72
2023/09/14 11:10:51;;;;;;;27.55;25.15;;;16.30;99.90;;;;;;5002600;28;21024;-72
2023/09/14 11:13:24;;;;;;;27.70;25.38;;;16.80;99.90;;;;;;4968528;28;20133;-73
2023/09/14 11:16:25;;;;;;;27.70;25.27;;;17.10;99.90;;;;;;4962643;28;20115;-72
2023/09/14 11:18:57;;;;;;;28.70;26.20;;;17.30;99.90;;;;;;4966114;28;20161;-72
2023/09/14 11:21:42;;;;;;;31.00;28.33;;;17.20;99.90;;;;;;4941562;28;23702;-71
2023/09/14 11:24:18;;;;;;;31.38;28.63;;;16.30;99.90;;;;;;4954739;28;20047;-72
2023/09/14 11:26:51;;;;;;;31.63;28.45;;;16.20;99.90;;;;;;4943650;28;20531;-72
2023/09/14 11:29:21;;;;;;;30.58;28.10;;;16.40;99.90;;;;;;4976371;28;20091;-72
2023/09/14 11:32:01;;;;;;;31.25;28.10;;;17.10;99.90;;;;;;4978865;28;20060;-72
2023/09/14 11:34:37;;;;;;;31.20;28.40;;;17.40;99.90;;;;;;4978143;28;20241;-73
2023/09/14 11:37:13;;;;;;;32.05;29.42;;;17.30;99.90;;;;;;4970009;28;20050;-71
2023/09/14 11:39:54;;;;;;;30.02;27.23;;;17.60;99.90;;;;;;4974016;28;20389;-72
2023/09/14 11:43:06;;;;;;;29.58;27.17;;;18.00;99.90;;;;;;4970023;28;20816;-71
2023/09/14 11:45:45;;;;;;;30.77;28.20;;;18.00;99.90;;;;;;4948958;28;20189;-72
2023/09/14 11:48:32;;;;;;;29.85;27.67;;;17.90;99.90;;;;;;4961768;28;20122;-73
2023/09/14 11:51:04;;;;;;;31.70;29.15;;;18.00;99.90;;;;;;4963464;28;20049;-72
2023/09/14 11:53:52;;;;;;;31.52;29.13;;;18.00;99.90;;;;;;4964180;28;20125;-72
2023/09/14 11:56:28;;;;;;;29.85;27.42;;;18.20;99.90;;;;;;4984429;28;20161;-73
2023/09/14 11:59:26;;;;;;;30.15;27.13;;;18.40;99.90;;;;;;4962591;28;20064;-73
2023/09/14 12:02:01;;;;;;;30.77;28.17;;;18.50;99.90;;;;;;4944240;28;21301;-73
2023/09/14 12:04:29;;;;;;;31.67;28.90;;;18.40;99.90;;;;;;4965229;28;21036;-73
2023/09/14 12:07:05;;;;;;;31.55;28.70;;;18.40;99.90;;;;;;4963487;28;20200;-74
2023/09/14 12:09:41;;;;;;;31.13;28.27;;;18.40;99.90;;;;;;4975832;28;20313;-73
2023/09/14 12:12:27;;;;;;;30.48;27.85;;;18.20;99.90;;;;;;4958790;28;20052;-72
2023/09/14 12:14:57;;;;;;;31.13;28.80;;;18.20;99.90;;;;;;4982289;28;20047;-73
2023/09/14 12:17:26;;;;;;;33.00;30.17;;;18.40;99.90;;;;;;4939181;28;20150;-73
2023/09/14 12:19:56;;;;;;;32.00;29.08;;;18.40;99.90;;;;;;4974397;28;20046;-73
2023/09/14 12:22:28;;;;;;;32.58;29.67;;;18.30;99.90;;;;;;4987371;28;20051;-73
2023/09/14 12:24:55;;;;;;;30.88;28.52;;;18.40;99.90;;;;;;4958038;28;20052;-73
2023/09/14 12:27:23;;;;;;;31.83;29.27;;;18.60;99.90;;;;;;4979569;28;20050;-74
2023/09/14 12:29:50;;;;;;;31.48;28.83;;;19.00;99.90;;;;;;4960174;28;20054;-73
2023/09/14 12:32:18;;;;;;;29.80;27.50;;;19.30;99.90;;;;;;4958246;28;20026;-73
2023/09/14 12:34:45;;;;;;;32.50;29.20;;;19.50;99.90;;;;;;4944841;28;20046;-72
2023/09/14 12:37:17;;;;;;;31.23;28.50;;;19.50;99.90;;;;;;4955952;28;20042;-72
2023/09/14 12:39:51;;;;;;;33.10;30.75;;;19.60;99.90;;;;;;4961847;28;20042;-72
2023/09/14 12:42:22;;;;;;;31.60;29.40;;;19.60;99.90;;;;;;4973870;28;20683;-72
2023/09/14 12:44:51;;;;;;;32.25;29.58;;;19.60;99.90;;;;;;4970038;28;20046;-71